sensor_id;sensor_type;location;lat;lon;timestamp;P1;durP1;ratioP1;P2;durP2;ratioP2
7473;SDS011;3778;42.572;23.426;2022-12-18T00:02:20;11.17;;;5.70;;
7473;SDS011;3778;42.572;23.426;2022-12-18T00:04:48;9.60;;;5.27;;
7473;SDS011;3778;42.572;23.426;2022-12-18T00:07:15;7.53;;;4.60;;
7473;SDS011;3778;42.572;23.426;2022-12-18T00:09:41;6.67;;;4.87;;
7473;SDS011;3778;42.572;23.426;2022-12-18T00:12:08;6.97;;;5.07;;
7473;SDS011;3778;42.572;23.426;2022-12-18T00:14:35;7.03;;;5.10;;
7473;SDS011;3778;42.572;23.426;2022-12-18T00:17:02;7.83;;;5.27;;
7473;SDS011;3778;42.572;23.426;2022-12-18T00:19:28;5.07;;;4.07;;
7473;SDS011;3778;42.572;23.426;2022-12-18T00:21:56;6.27;;;4.43;;
7473;SDS011;3778;42.572;23.426;2022-12-18T00:24:23;5.13;;;3.70;;
7473;SDS011;3778;42.572;23.426;2022-12-18T00:26:50;6.00;;;3.67;;
7473;SDS011;3778;42.572;23.426;2022-12-18T00:29:16;7.77;;;4.30;;
7473;SDS011;3778;42.572;23.426;2022-12-18T00:31:43;6.87;;;4.17;;
7473;SDS011;3778;42.572;23.426;2022-12-18T00:34:10;5.47;;;3.40;;
7473;SDS011;3778;42.572;23.426;2022-12-18T00:36:39;7.03;;;3.63;;
7473;SDS011;3778;42.572;23.426;2022-12-18T00:39:08;4.30;;;3.10;;
7473;SDS011;3778;42.572;23.426;2022-12-18T00:41:36;5.13;;;3.57;;
7473;SDS011;3778;42.572;23.426;2022-12-18T00:44:20;4.90;;;3.57;;
7473;SDS011;3778;42.572;23.426;2022-12-18T00:46:47;6.57;;;3.20;;
7473;SDS011;3778;42.572;23.426;2022-12-18T00:49:14;4.43;;;3.20;;
7473;SDS011;3778;42.572;23.426;2022-12-18T00:51:42;5.13;;;3.67;;
7473;SDS011;3778;42.572;23.426;2022-12-18T00:54:10;5.93;;;3.43;;
7473;SDS011;3778;42.572;23.426;2022-12-18T00:56:37;4.43;;;2.90;;
7473;SDS011;3778;42.572;23.426;2022-12-18T00:59:04;5.47;;;3.37;;
7473;SDS011;3778;42.572;23.426;2022-12-18T01:01:31;5.47;;;3.63;;
7473;SDS011;3778;42.572;23.426;2022-12-18T01:03:59;4.87;;;3.33;;
7473;SDS011;3778;42.572;23.426;2022-12-18T01:06:27;6.77;;;3.27;;
7473;SDS011;3778;42.572;23.426;2022-12-18T01:08:53;4.57;;;3.30;;
7473;SDS011;3778;42.572;23.426;2022-12-18T01:11:22;5.37;;;3.17;;
7473;SDS011;3778;42.572;23.426;2022-12-18T01:13:51;5.63;;;4.20;;
7473;SDS011;3778;42.572;23.426;2022-12-18T01:16:18;5.17;;;3.67;;
7473;SDS011;3778;42.572;23.426;2022-12-18T01:18:45;4.93;;;3.60;;
7473;SDS011;3778;42.572;23.426;2022-12-18T01:21:13;4.37;;;3.20;;
7473;SDS011;3778;42.572;23.426;2022-12-18T01:23:41;5.23;;;3.67;;
7473;SDS011;3778;42.572;23.426;2022-12-18T01:26:08;5.57;;;3.63;;
7473;SDS011;3778;42.572;23.426;2022-12-18T01:28:38;5.67;;;3.40;;
7473;SDS011;3778;42.572;23.426;2022-12-18T01:31:09;5.43;;;3.17;;
7473;SDS011;3778;42.572;23.426;2022-12-18T01:33:37;4.43;;;3.70;;
7473;SDS011;3778;42.572;23.426;2022-12-18T01:36:03;4.80;;;3.40;;
7473;SDS011;3778;42.572;23.426;2022-12-18T01:38:31;4.97;;;3.80;;
7473;SDS011;3778;42.572;23.426;2022-12-18T01:40:57;4.77;;;3.63;;
7473;SDS011;3778;42.572;23.426;2022-12-18T01:46:11;5.83;;;3.47;;
7473;SDS011;3778;42.572;23.426;2022-12-18T01:48:38;4.97;;;3.20;;
7473;SDS011;3778;42.572;23.426;2022-12-18T01:51:07;5.67;;;3.30;;
7473;SDS011;3778;42.572;23.426;2022-12-18T01:53:36;4.97;;;3.90;;
7473;SDS011;3778;42.572;23.426;2022-12-18T01:56:05;7.07;;;3.83;;
7473;SDS011;3778;42.572;23.426;2022-12-18T01:58:35;5.93;;;3.90;;
7473;SDS011;3778;42.572;23.426;2022-12-18T02:01:07;5.30;;;3.47;;
7473;SDS011;3778;42.572;23.426;2022-12-18T02:03:34;5.50;;;3.80;;
7473;SDS011;3778;42.572;23.426;2022-12-18T02:06:03;7.13;;;3.73;;
7473;SDS011;3778;42.572;23.426;2022-12-18T02:08:37;7.03;;;4.53;;
7473;SDS011;3778;42.572;23.426;2022-12-18T02:11:15;9.00;;;4.23;;
7473;SDS011;3778;42.572;23.426;2022-12-18T02:13:48;4.40;;;3.17;;
7473;SDS011;3778;42.572;23.426;2022-12-18T02:16:25;8.47;;;4.67;;
7473;SDS011;3778;42.572;23.426;2022-12-18T02:19:00;6.77;;;4.50;;
7473;SDS011;3778;42.572;23.426;2022-12-18T02:21:37;9.33;;;4.23;;
7473;SDS011;3778;42.572;23.426;2022-12-18T02:24:18;9.00;;;5.57;;
7473;SDS011;3778;42.572;23.426;2022-12-18T02:26:56;8.13;;;4.63;;
7473;SDS011;3778;42.572;23.426;2022-12-18T02:29:27;11.33;;;5.87;;
7473;SDS011;3778;42.572;23.426;2022-12-18T02:31:58;7.67;;;5.33;;
7473;SDS011;3778;42.572;23.426;2022-12-18T02:34:30;9.20;;;5.70;;
7473;SDS011;3778;42.572;23.426;2022-12-18T02:37:00;7.97;;;5.47;;
7473;SDS011;3778;42.572;23.426;2022-12-18T02:39:30;9.67;;;5.30;;
7473;SDS011;3778;42.572;23.426;2022-12-18T02:42:00;10.00;;;4.90;;
7473;SDS011;3778;42.572;23.426;2022-12-18T02:44:32;10.47;;;6.43;;
7473;SDS011;3778;42.572;23.426;2022-12-18T02:47:00;12.20;;;6.30;;
7473;SDS011;3778;42.572;23.426;2022-12-18T02:49:29;9.37;;;5.70;;
7473;SDS011;3778;42.572;23.426;2022-12-18T02:52:05;10.17;;;6.23;;
7473;SDS011;3778;42.572;23.426;2022-12-18T02:54:46;8.87;;;5.57;;
7473;SDS011;3778;42.572;23.426;2022-12-18T02:57:24;7.93;;;5.40;;
7473;SDS011;3778;42.572;23.426;2022-12-18T03:00:00;9.93;;;6.17;;
7473;SDS011;3778;42.572;23.426;2022-12-18T03:02:32;9.03;;;5.97;;
7473;SDS011;3778;42.572;23.426;2022-12-18T03:05:05;10.07;;;6.50;;
7473;SDS011;3778;42.572;23.426;2022-12-18T03:07:38;14.10;;;6.40;;
7473;SDS011;3778;42.572;23.426;2022-12-18T03:10:09;10.97;;;6.43;;
7473;SDS011;3778;42.572;23.426;2022-12-18T03:12:42;11.20;;;6.87;;
7473;SDS011;3778;42.572;23.426;2022-12-18T03:15:13;15.27;;;7.63;;
7473;SDS011;3778;42.572;23.426;2022-12-18T03:17:44;8.27;;;5.93;;
7473;SDS011;3778;42.572;23.426;2022-12-18T03:20:16;8.83;;;4.97;;
7473;SDS011;3778;42.572;23.426;2022-12-18T03:22:46;9.37;;;5.87;;
7473;SDS011;3778;42.572;23.426;2022-12-18T03:25:18;7.77;;;5.17;;
7473;SDS011;3778;42.572;23.426;2022-12-18T03:27:47;7.33;;;5.27;;
7473;SDS011;3778;42.572;23.426;2022-12-18T03:30:17;9.57;;;6.07;;
7473;SDS011;3778;42.572;23.426;2022-12-18T03:32:44;7.83;;;5.37;;
7473;SDS011;3778;42.572;23.426;2022-12-18T03:35:16;10.60;;;6.00;;
7473;SDS011;3778;42.572;23.426;2022-12-18T03:37:46;9.30;;;6.40;;
7473;SDS011;3778;42.572;23.426;2022-12-18T03:40:13;10.60;;;5.63;;
7473;SDS011;3778;42.572;23.426;2022-12-18T03:42:43;10.40;;;7.20;;
7473;SDS011;3778;42.572;23.426;2022-12-18T03:45:16;8.43;;;5.17;;
7473;SDS011;3778;42.572;23.426;2022-12-18T03:47:52;9.03;;;5.60;;
7473;SDS011;3778;42.572;23.426;2022-12-18T03:50:27;10.73;;;5.77;;
7473;SDS011;3778;42.572;23.426;2022-12-18T03:53:05;7.83;;;5.37;;
7473;SDS011;3778;42.572;23.426;2022-12-18T03:55:43;9.37;;;5.10;;
7473;SDS011;3778;42.572;23.426;2022-12-18T03:58:12;7.30;;;4.90;;
7473;SDS011;3778;42.572;23.426;2022-12-18T04:00:43;12.27;;;5.07;;
7473;SDS011;3778;42.572;23.426;2022-12-18T04:03:11;9.00;;;5.27;;
7473;SDS011;3778;42.572;23.426;2022-12-18T04:05:40;9.57;;;4.27;;
7473;SDS011;3778;42.572;23.426;2022-12-18T04:08:09;7.83;;;5.33;;
7473;SDS011;3778;42.572;23.426;2022-12-18T04:10:36;7.63;;;4.73;;
7473;SDS011;3778;42.572;23.426;2022-12-18T04:13:04;6.93;;;4.73;;
7473;SDS011;3778;42.572;23.426;2022-12-18T04:15:31;7.13;;;4.77;;
7473;SDS011;3778;42.572;23.426;2022-12-18T04:18:02;10.73;;;5.43;;
7473;SDS011;3778;42.572;23.426;2022-12-18T04:20:29;6.60;;;3.93;;
7473;SDS011;3778;42.572;23.426;2022-12-18T04:22:56;7.20;;;4.13;;
7473;SDS011;3778;42.572;23.426;2022-12-18T04:25:22;8.10;;;4.97;;
7473;SDS011;3778;42.572;23.426;2022-12-18T04:27:49;5.80;;;5.00;;
7473;SDS011;3778;42.572;23.426;2022-12-18T04:30:16;7.73;;;4.47;;
7473;SDS011;3778;42.572;23.426;2022-12-18T04:32:43;4.93;;;3.20;;
7473;SDS011;3778;42.572;23.426;2022-12-18T04:35:11;6.47;;;4.87;;
7473;SDS011;3778;42.572;23.426;2022-12-18T04:37:37;8.33;;;4.77;;
7473;SDS011;3778;42.572;23.426;2022-12-18T04:40:05;8.93;;;4.33;;
7473;SDS011;3778;42.572;23.426;2022-12-18T04:42:32;6.50;;;4.17;;
7473;SDS011;3778;42.572;23.426;2022-12-18T04:44:59;6.33;;;4.37;;
7473;SDS011;3778;42.572;23.426;2022-12-18T04:47:25;5.80;;;4.43;;
7473;SDS011;3778;42.572;23.426;2022-12-18T04:49:52;6.10;;;3.70;;
7473;SDS011;3778;42.572;23.426;2022-12-18T04:52:20;7.87;;;4.70;;
7473;SDS011;3778;42.572;23.426;2022-12-18T04:54:47;7.43;;;4.40;;
7473;SDS011;3778;42.572;23.426;2022-12-18T04:57:13;6.53;;;4.13;;
7473;SDS011;3778;42.572;23.426;2022-12-18T04:59:40;7.63;;;4.23;;
7473;SDS011;3778;42.572;23.426;2022-12-18T05:02:07;7.37;;;5.00;;
7473;SDS011;3778;42.572;23.426;2022-12-18T05:04:33;8.17;;;4.30;;
7473;SDS011;3778;42.572;23.426;2022-12-18T05:07:00;7.53;;;4.63;;
7473;SDS011;3778;42.572;23.426;2022-12-18T05:09:28;9.93;;;4.43;;
7473;SDS011;3778;42.572;23.426;2022-12-18T05:11:55;7.07;;;4.43;;
7473;SDS011;3778;42.572;23.426;2022-12-18T05:14:21;7.57;;;4.03;;
7473;SDS011;3778;42.572;23.426;2022-12-18T05:16:48;8.47;;;5.00;;
7473;SDS011;3778;42.572;23.426;2022-12-18T05:19:15;9.33;;;4.50;;
7473;SDS011;3778;42.572;23.426;2022-12-18T05:21:42;9.67;;;4.57;;
7473;SDS011;3778;42.572;23.426;2022-12-18T05:24:08;9.83;;;5.07;;
7473;SDS011;3778;42.572;23.426;2022-12-18T05:26:36;6.97;;;4.47;;
7473;SDS011;3778;42.572;23.426;2022-12-18T05:29:03;7.40;;;4.57;;
7473;SDS011;3778;42.572;23.426;2022-12-18T05:31:30;10.43;;;5.70;;
7473;SDS011;3778;42.572;23.426;2022-12-18T05:33:57;9.67;;;5.43;;
7473;SDS011;3778;42.572;23.426;2022-12-18T05:36:24;9.57;;;4.30;;
7473;SDS011;3778;42.572;23.426;2022-12-18T05:38:50;5.73;;;4.07;;
7473;SDS011;3778;42.572;23.426;2022-12-18T05:41:17;7.90;;;4.47;;
7473;SDS011;3778;42.572;23.426;2022-12-18T05:43:45;6.57;;;4.40;;
7473;SDS011;3778;42.572;23.426;2022-12-18T05:46:13;8.27;;;5.27;;
7473;SDS011;3778;42.572;23.426;2022-12-18T05:48:42;8.23;;;5.17;;
7473;SDS011;3778;42.572;23.426;2022-12-18T05:51:11;7.90;;;4.87;;
7473;SDS011;3778;42.572;23.426;2022-12-18T05:53:40;7.33;;;4.40;;
7473;SDS011;3778;42.572;23.426;2022-12-18T05:56:08;11.70;;;4.93;;
7473;SDS011;3778;42.572;23.426;2022-12-18T05:58:39;9.97;;;5.40;;
7473;SDS011;3778;42.572;23.426;2022-12-18T06:01:09;10.23;;;6.40;;
7473;SDS011;3778;42.572;23.426;2022-12-18T06:03:37;11.47;;;6.03;;
7473;SDS011;3778;42.572;23.426;2022-12-18T06:06:11;8.60;;;5.37;;
7473;SDS011;3778;42.572;23.426;2022-12-18T06:08:39;12.30;;;6.07;;
7473;SDS011;3778;42.572;23.426;2022-12-18T06:11:05;9.40;;;6.00;;
7473;SDS011;3778;42.572;23.426;2022-12-18T06:13:32;11.13;;;5.63;;
7473;SDS011;3778;42.572;23.426;2022-12-18T06:16:01;10.30;;;5.37;;
7473;SDS011;3778;42.572;23.426;2022-12-18T06:18:29;10.43;;;5.97;;
7473;SDS011;3778;42.572;23.426;2022-12-18T06:20:56;10.57;;;5.43;;
7473;SDS011;3778;42.572;23.426;2022-12-18T06:23:24;9.17;;;6.10;;
7473;SDS011;3778;42.572;23.426;2022-12-18T06:25:51;11.63;;;6.23;;
7473;SDS011;3778;42.572;23.426;2022-12-18T06:28:18;9.00;;;4.97;;
7473;SDS011;3778;42.572;23.426;2022-12-18T06:30:45;11.43;;;6.40;;
7473;SDS011;3778;42.572;23.426;2022-12-18T06:33:18;12.07;;;6.70;;
7473;SDS011;3778;42.572;23.426;2022-12-18T06:35:46;8.70;;;5.60;;
7473;SDS011;3778;42.572;23.426;2022-12-18T06:38:13;10.57;;;5.83;;
7473;SDS011;3778;42.572;23.426;2022-12-18T06:40:42;13.07;;;7.00;;
7473;SDS011;3778;42.572;23.426;2022-12-18T06:43:10;11.20;;;6.00;;
7473;SDS011;3778;42.572;23.426;2022-12-18T06:45:36;8.80;;;5.50;;
7473;SDS011;3778;42.572;23.426;2022-12-18T06:48:03;12.37;;;7.33;;
7473;SDS011;3778;42.572;23.426;2022-12-18T06:50:30;13.67;;;7.20;;
7473;SDS011;3778;42.572;23.426;2022-12-18T06:52:58;12.80;;;5.83;;
7473;SDS011;3778;42.572;23.426;2022-12-18T06:55:25;11.60;;;7.07;;
7473;SDS011;3778;42.572;23.426;2022-12-18T06:57:52;13.03;;;6.53;;
7473;SDS011;3778;42.572;23.426;2022-12-18T07:00:19;12.27;;;6.83;;
7473;SDS011;3778;42.572;23.426;2022-12-18T07:02:45;11.53;;;5.57;;
7473;SDS011;3778;42.572;23.426;2022-12-18T07:05:12;11.00;;;6.50;;
7473;SDS011;3778;42.572;23.426;2022-12-18T07:07:39;12.60;;;6.70;;
7473;SDS011;3778;42.572;23.426;2022-12-18T07:10:07;11.70;;;6.53;;
7473;SDS011;3778;42.572;23.426;2022-12-18T07:12:35;13.73;;;6.87;;
7473;SDS011;3778;42.572;23.426;2022-12-18T07:15:02;10.87;;;6.53;;
7473;SDS011;3778;42.572;23.426;2022-12-18T07:17:29;13.30;;;7.83;;
7473;SDS011;3778;42.572;23.426;2022-12-18T07:19:56;15.17;;;6.57;;
7473;SDS011;3778;42.572;23.426;2022-12-18T07:22:23;13.67;;;7.00;;
7473;SDS011;3778;42.572;23.426;2022-12-18T07:24:51;13.17;;;6.53;;
7473;SDS011;3778;42.572;23.426;2022-12-18T07:27:19;10.43;;;5.67;;
7473;SDS011;3778;42.572;23.426;2022-12-18T07:29:46;12.53;;;6.37;;
7473;SDS011;3778;42.572;23.426;2022-12-18T07:32:13;9.33;;;5.97;;
7473;SDS011;3778;42.572;23.426;2022-12-18T07:34:40;11.93;;;6.47;;
7473;SDS011;3778;42.572;23.426;2022-12-18T07:37:07;12.37;;;6.07;;
7473;SDS011;3778;42.572;23.426;2022-12-18T07:39:34;12.13;;;7.77;;
7473;SDS011;3778;42.572;23.426;2022-12-18T07:42:00;15.67;;;6.80;;
7473;SDS011;3778;42.572;23.426;2022-12-18T07:44:46;10.33;;;5.90;;
7473;SDS011;3778;42.572;23.426;2022-12-18T07:47:13;12.60;;;6.57;;
7473;SDS011;3778;42.572;23.426;2022-12-18T07:49:40;9.90;;;6.50;;
7473;SDS011;3778;42.572;23.426;2022-12-18T07:52:06;13.93;;;7.33;;
7473;SDS011;3778;42.572;23.426;2022-12-18T07:54:34;10.93;;;6.70;;
7473;SDS011;3778;42.572;23.426;2022-12-18T07:57:01;14.87;;;7.77;;
7473;SDS011;3778;42.572;23.426;2022-12-18T07:59:27;9.90;;;5.57;;
7473;SDS011;3778;42.572;23.426;2022-12-18T08:01:55;11.60;;;7.27;;
7473;SDS011;3778;42.572;23.426;2022-12-18T08:04:22;10.43;;;6.20;;
7473;SDS011;3778;42.572;23.426;2022-12-18T08:06:49;13.87;;;7.10;;
7473;SDS011;3778;42.572;23.426;2022-12-18T08:09:16;12.47;;;6.80;;
7473;SDS011;3778;42.572;23.426;2022-12-18T08:11:42;11.67;;;6.07;;
7473;SDS011;3778;42.572;23.426;2022-12-18T08:14:09;15.77;;;7.73;;
7473;SDS011;3778;42.572;23.426;2022-12-18T08:16:36;13.07;;;7.23;;
7473;SDS011;3778;42.572;23.426;2022-12-18T08:19:04;12.53;;;7.03;;
7473;SDS011;3778;42.572;23.426;2022-12-18T08:21:31;12.63;;;7.17;;
7473;SDS011;3778;42.572;23.426;2022-12-18T08:23:59;12.20;;;7.43;;
7473;SDS011;3778;42.572;23.426;2022-12-18T08:26:27;11.23;;;6.57;;
7473;SDS011;3778;42.572;23.426;2022-12-18T08:28:56;16.27;;;7.10;;
7473;SDS011;3778;42.572;23.426;2022-12-18T08:31:25;12.50;;;6.73;;
7473;SDS011;3778;42.572;23.426;2022-12-18T08:33:53;13.27;;;6.70;;
7473;SDS011;3778;42.572;23.426;2022-12-18T08:36:22;14.27;;;7.93;;
7473;SDS011;3778;42.572;23.426;2022-12-18T08:38:50;14.53;;;6.83;;
7473;SDS011;3778;42.572;23.426;2022-12-18T08:41:17;15.87;;;7.97;;
7473;SDS011;3778;42.572;23.426;2022-12-18T08:43:44;13.57;;;8.07;;
7473;SDS011;3778;42.572;23.426;2022-12-18T08:46:31;17.17;;;7.27;;
7473;SDS011;3778;42.572;23.426;2022-12-18T08:49:00;15.57;;;8.40;;
7473;SDS011;3778;42.572;23.426;2022-12-18T08:51:28;15.57;;;8.07;;
7473;SDS011;3778;42.572;23.426;2022-12-18T08:53:54;17.33;;;9.33;;
7473;SDS011;3778;42.572;23.426;2022-12-18T08:56:21;15.27;;;8.17;;
7473;SDS011;3778;42.572;23.426;2022-12-18T08:58:50;14.73;;;7.50;;
7473;SDS011;3778;42.572;23.426;2022-12-18T09:01:18;21.07;;;9.50;;
7473;SDS011;3778;42.572;23.426;2022-12-18T09:03:45;17.00;;;8.77;;
7473;SDS011;3778;42.572;23.426;2022-12-18T09:06:14;15.07;;;8.13;;
7473;SDS011;3778;42.572;23.426;2022-12-18T09:08:43;16.77;;;8.43;;
7473;SDS011;3778;42.572;23.426;2022-12-18T09:11:14;16.13;;;8.20;;
7473;SDS011;3778;42.572;23.426;2022-12-18T09:13:44;17.10;;;8.63;;
7473;SDS011;3778;42.572;23.426;2022-12-18T09:16:17;19.90;;;9.57;;
7473;SDS011;3778;42.572;23.426;2022-12-18T09:18:44;17.17;;;7.60;;
7473;SDS011;3778;42.572;23.426;2022-12-18T09:21:12;15.13;;;8.27;;
7473;SDS011;3778;42.572;23.426;2022-12-18T09:23:44;18.63;;;8.60;;
7473;SDS011;3778;42.572;23.426;2022-12-18T09:26:14;12.23;;;7.20;;
7473;SDS011;3778;42.572;23.426;2022-12-18T09:28:41;14.80;;;7.70;;
7473;SDS011;3778;42.572;23.426;2022-12-18T09:31:08;15.83;;;8.40;;
7473;SDS011;3778;42.572;23.426;2022-12-18T09:33:40;16.30;;;9.07;;
7473;SDS011;3778;42.572;23.426;2022-12-18T09:36:09;16.87;;;8.00;;
7473;SDS011;3778;42.572;23.426;2022-12-18T09:38:37;16.77;;;8.07;;
7473;SDS011;3778;42.572;23.426;2022-12-18T09:41:06;14.30;;;8.57;;
7473;SDS011;3778;42.572;23.426;2022-12-18T09:43:49;16.80;;;9.07;;
7473;SDS011;3778;42.572;23.426;2022-12-18T09:46:19;15.67;;;8.57;;
7473;SDS011;3778;42.572;23.426;2022-12-18T09:48:52;16.83;;;9.10;;
7473;SDS011;3778;42.572;23.426;2022-12-18T09:51:23;15.67;;;8.37;;
7473;SDS011;3778;42.572;23.426;2022-12-18T09:53:55;18.83;;;8.87;;
7473;SDS011;3778;42.572;23.426;2022-12-18T09:56:26;17.60;;;9.00;;
7473;SDS011;3778;42.572;23.426;2022-12-18T09:58:58;15.77;;;8.77;;
7473;SDS011;3778;42.572;23.426;2022-12-18T10:01:27;18.83;;;9.80;;
7473;SDS011;3778;42.572;23.426;2022-12-18T10:03:54;17.87;;;9.40;;
7473;SDS011;3778;42.572;23.426;2022-12-18T10:06:23;17.20;;;9.20;;
7473;SDS011;3778;42.572;23.426;2022-12-18T10:08:56;18.93;;;10.93;;
7473;SDS011;3778;42.572;23.426;2022-12-18T10:11:32;20.23;;;10.23;;
7473;SDS011;3778;42.572;23.426;2022-12-18T10:14:08;22.20;;;9.77;;
7473;SDS011;3778;42.572;23.426;2022-12-18T10:16:42;16.87;;;9.93;;
7473;SDS011;3778;42.572;23.426;2022-12-18T10:22:10;30.37;;;11.40;;
7473;SDS011;3778;42.572;23.426;2022-12-18T10:24:42;19.40;;;10.57;;
7473;SDS011;3778;42.572;23.426;2022-12-18T10:27:21;18.33;;;10.13;;
7473;SDS011;3778;42.572;23.426;2022-12-18T10:29:50;17.63;;;10.73;;
7473;SDS011;3778;42.572;23.426;2022-12-18T10:32:18;23.90;;;11.47;;
7473;SDS011;3778;42.572;23.426;2022-12-18T10:34:46;20.07;;;10.43;;
7473;SDS011;3778;42.572;23.426;2022-12-18T10:37:15;17.50;;;9.40;;
7473;SDS011;3778;42.572;23.426;2022-12-18T10:39:44;18.10;;;9.77;;
7473;SDS011;3778;42.572;23.426;2022-12-18T10:42:14;24.93;;;14.30;;
7473;SDS011;3778;42.572;23.426;2022-12-18T10:44:45;19.77;;;10.23;;
7473;SDS011;3778;42.572;23.426;2022-12-18T10:47:26;17.10;;;9.10;;
7473;SDS011;3778;42.572;23.426;2022-12-18T10:49:53;18.40;;;9.30;;
7473;SDS011;3778;42.572;23.426;2022-12-18T10:52:21;17.13;;;8.87;;
7473;SDS011;3778;42.572;23.426;2022-12-18T10:54:51;18.60;;;9.50;;
7473;SDS011;3778;42.572;23.426;2022-12-18T10:57:33;20.63;;;9.93;;
7473;SDS011;3778;42.572;23.426;2022-12-18T11:02:49;18.50;;;9.43;;
7473;SDS011;3778;42.572;23.426;2022-12-18T11:05:23;19.60;;;8.60;;
7473;SDS011;3778;42.572;23.426;2022-12-18T11:07:52;21.93;;;10.43;;
7473;SDS011;3778;42.572;23.426;2022-12-18T11:10:21;17.83;;;9.53;;
7473;SDS011;3778;42.572;23.426;2022-12-18T11:12:50;20.60;;;10.43;;
7473;SDS011;3778;42.572;23.426;2022-12-18T11:15:19;20.80;;;10.23;;
7473;SDS011;3778;42.572;23.426;2022-12-18T11:17:49;23.83;;;10.20;;
7473;SDS011;3778;42.572;23.426;2022-12-18T11:20:30;23.90;;;11.90;;
7473;SDS011;3778;42.572;23.426;2022-12-18T11:22:59;19.80;;;9.83;;
7473;SDS011;3778;42.572;23.426;2022-12-18T11:25:27;18.07;;;8.33;;
7473;SDS011;3778;42.572;23.426;2022-12-18T11:27:55;14.77;;;8.40;;
7473;SDS011;3778;42.572;23.426;2022-12-18T11:30:26;18.87;;;9.77;;
7473;SDS011;3778;42.572;23.426;2022-12-18T11:33:00;16.70;;;9.00;;
7473;SDS011;3778;42.572;23.426;2022-12-18T11:35:35;21.37;;;9.27;;
7473;SDS011;3778;42.572;23.426;2022-12-18T11:38:17;12.80;;;7.60;;
7473;SDS011;3778;42.572;23.426;2022-12-18T11:40:50;15.40;;;8.00;;
7473;SDS011;3778;42.572;23.426;2022-12-18T11:43:25;13.60;;;7.73;;
7473;SDS011;3778;42.572;23.426;2022-12-18T11:45:55;17.67;;;8.63;;
7473;SDS011;3778;42.572;23.426;2022-12-18T11:48:29;17.67;;;8.67;;
7473;SDS011;3778;42.572;23.426;2022-12-18T11:50:59;16.00;;;8.40;;
7473;SDS011;3778;42.572;23.426;2022-12-18T11:53:29;18.60;;;8.70;;
7473;SDS011;3778;42.572;23.426;2022-12-18T11:56:01;13.93;;;7.90;;
7473;SDS011;3778;42.572;23.426;2022-12-18T11:58:43;14.50;;;8.20;;
7473;SDS011;3778;42.572;23.426;2022-12-18T12:01:23;20.10;;;8.77;;
7473;SDS011;3778;42.572;23.426;2022-12-18T12:04:07;20.03;;;9.23;;
7473;SDS011;3778;42.572;23.426;2022-12-18T12:06:53;12.93;;;7.23;;
7473;SDS011;3778;42.572;23.426;2022-12-18T12:09:27;15.13;;;7.83;;
7473;SDS011;3778;42.572;23.426;2022-12-18T12:12:10;17.43;;;7.80;;
7473;SDS011;3778;42.572;23.426;2022-12-18T12:14:50;16.17;;;8.10;;
7473;SDS011;3778;42.572;23.426;2022-12-18T12:17:42;15.90;;;8.40;;
7473;SDS011;3778;42.572;23.426;2022-12-18T12:20:18;18.27;;;9.23;;
7473;SDS011;3778;42.572;23.426;2022-12-18T12:22:50;15.70;;;7.33;;
7473;SDS011;3778;42.572;23.426;2022-12-18T12:25:27;15.07;;;6.67;;
7473;SDS011;3778;42.572;23.426;2022-12-18T12:28:02;13.23;;;7.37;;
7473;SDS011;3778;42.572;23.426;2022-12-18T12:30:40;17.10;;;9.00;;
7473;SDS011;3778;42.572;23.426;2022-12-18T12:33:17;17.60;;;7.63;;
7473;SDS011;3778;42.572;23.426;2022-12-18T12:35:58;17.10;;;8.97;;
7473;SDS011;3778;42.572;23.426;2022-12-18T12:38:33;22.30;;;11.70;;
7473;SDS011;3778;42.572;23.426;2022-12-18T12:41:02;23.57;;;12.03;;
7473;SDS011;3778;42.572;23.426;2022-12-18T12:43:52;18.73;;;9.87;;
7473;SDS011;3778;42.572;23.426;2022-12-18T12:46:20;16.17;;;9.03;;
7473;SDS011;3778;42.572;23.426;2022-12-18T12:48:49;18.77;;;8.80;;
7473;SDS011;3778;42.572;23.426;2022-12-18T12:51:20;14.90;;;8.97;;
7473;SDS011;3778;42.572;23.426;2022-12-18T12:53:50;17.80;;;8.87;;
7473;SDS011;3778;42.572;23.426;2022-12-18T12:56:19;17.13;;;8.53;;
7473;SDS011;3778;42.572;23.426;2022-12-18T12:58:51;16.00;;;8.13;;
7473;SDS011;3778;42.572;23.426;2022-12-18T13:01:26;16.20;;;8.80;;
7473;SDS011;3778;42.572;23.426;2022-12-18T13:04:02;18.70;;;8.83;;
7473;SDS011;3778;42.572;23.426;2022-12-18T13:06:42;20.50;;;10.23;;
7473;SDS011;3778;42.572;23.426;2022-12-18T13:09:14;15.70;;;8.23;;
7473;SDS011;3778;42.572;23.426;2022-12-18T13:11:41;18.53;;;10.03;;
7473;SDS011;3778;42.572;23.426;2022-12-18T13:14:28;14.90;;;8.70;;
7473;SDS011;3778;42.572;23.426;2022-12-18T13:17:16;17.53;;;9.37;;
7473;SDS011;3778;42.572;23.426;2022-12-18T13:20:02;16.60;;;9.50;;
7473;SDS011;3778;42.572;23.426;2022-12-18T13:22:34;18.43;;;9.53;;
7473;SDS011;3778;42.572;23.426;2022-12-18T13:25:03;17.13;;;9.57;;
7473;SDS011;3778;42.572;23.426;2022-12-18T13:30:44;14.53;;;8.10;;
7473;SDS011;3778;42.572;23.426;2022-12-18T13:45:40;24.23;;;11.40;;
7473;SDS011;3778;42.572;23.426;2022-12-18T13:48:20;22.13;;;11.00;;
7473;SDS011;3778;42.572;23.426;2022-12-18T13:50:52;22.93;;;10.63;;
7473;SDS011;3778;42.572;23.426;2022-12-18T13:53:23;24.70;;;10.93;;
7473;SDS011;3778;42.572;23.426;2022-12-18T13:55:55;23.30;;;11.43;;
7473;SDS011;3778;42.572;23.426;2022-12-18T13:58:22;23.03;;;11.23;;
7473;SDS011;3778;42.572;23.426;2022-12-18T14:00:49;22.10;;;11.67;;
7473;SDS011;3778;42.572;23.426;2022-12-18T14:03:20;24.47;;;11.17;;
7473;SDS011;3778;42.572;23.426;2022-12-18T14:05:52;21.13;;;12.17;;
7473;SDS011;3778;42.572;23.426;2022-12-18T14:08:22;25.83;;;12.27;;
7473;SDS011;3778;42.572;23.426;2022-12-18T14:10:51;23.93;;;12.00;;
7473;SDS011;3778;42.572;23.426;2022-12-18T14:13:21;21.50;;;10.90;;
7473;SDS011;3778;42.572;23.426;2022-12-18T14:15:53;24.93;;;11.23;;
7473;SDS011;3778;42.572;23.426;2022-12-18T14:18:21;23.67;;;13.77;;
7473;SDS011;3778;42.572;23.426;2022-12-18T14:20:50;20.57;;;10.93;;
7473;SDS011;3778;42.572;23.426;2022-12-18T14:23:29;24.63;;;12.40;;
7473;SDS011;3778;42.572;23.426;2022-12-18T14:25:57;26.80;;;13.87;;
7473;SDS011;3778;42.572;23.426;2022-12-18T14:28:27;25.10;;;11.73;;
7473;SDS011;3778;42.572;23.426;2022-12-18T14:30:54;26.93;;;13.47;;
7473;SDS011;3778;42.572;23.426;2022-12-18T14:33:22;29.13;;;14.43;;
7473;SDS011;3778;42.572;23.426;2022-12-18T14:35:54;21.87;;;10.87;;
7473;SDS011;3778;42.572;23.426;2022-12-18T14:38:24;19.40;;;10.67;;
7473;SDS011;3778;42.572;23.426;2022-12-18T14:40:56;22.90;;;10.50;;
7473;SDS011;3778;42.572;23.426;2022-12-18T14:43:27;26.03;;;11.67;;
7473;SDS011;3778;42.572;23.426;2022-12-18T14:45:56;23.50;;;11.07;;
7473;SDS011;3778;42.572;23.426;2022-12-18T14:48:30;24.23;;;11.20;;
7473;SDS011;3778;42.572;23.426;2022-12-18T14:51:02;22.67;;;11.47;;
7473;SDS011;3778;42.572;23.426;2022-12-18T14:53:37;23.07;;;12.77;;
7473;SDS011;3778;42.572;23.426;2022-12-18T14:56:13;24.53;;;11.73;;
7473;SDS011;3778;42.572;23.426;2022-12-18T14:58:47;30.63;;;12.00;;
7473;SDS011;3778;42.572;23.426;2022-12-18T15:01:19;23.27;;;10.93;;
7473;SDS011;3778;42.572;23.426;2022-12-18T15:03:51;23.47;;;10.97;;
7473;SDS011;3778;42.572;23.426;2022-12-18T15:06:24;27.23;;;12.07;;
7473;SDS011;3778;42.572;23.426;2022-12-18T15:08:53;22.00;;;11.13;;
7473;SDS011;3778;42.572;23.426;2022-12-18T15:11:43;21.60;;;11.73;;
7473;SDS011;3778;42.572;23.426;2022-12-18T15:17:01;27.43;;;11.70;;
7473;SDS011;3778;42.572;23.426;2022-12-18T15:19:33;21.60;;;10.87;;
7473;SDS011;3778;42.572;23.426;2022-12-18T15:22:03;21.57;;;10.50;;
7473;SDS011;3778;42.572;23.426;2022-12-18T15:24:31;44.17;;;21.40;;
7473;SDS011;3778;42.572;23.426;2022-12-18T15:26:58;52.93;;;23.70;;
7473;SDS011;3778;42.572;23.426;2022-12-18T15:29:26;27.60;;;13.50;;
7473;SDS011;3778;42.572;23.426;2022-12-18T15:32:01;20.77;;;10.40;;
7473;SDS011;3778;42.572;23.426;2022-12-18T15:34:29;16.97;;;9.13;;
7473;SDS011;3778;42.572;23.426;2022-12-18T15:36:59;18.57;;;8.53;;